sensor_id;sensor_type;location;lat;lon;timestamp;pressure;altitude;pressure_sealevel;temperature;humidity
66742;BME280;53654;54.152;19.432;2022-12-07T00:01:22;100784.26;;;3.97;81.11
66742;BME280;53654;54.152;19.432;2022-12-07T00:03:50;100784.85;;;3.92;81.12
66742;BME280;53654;54.152;19.432;2022-12-07T00:06:18;100784.46;;;3.90;81.28
66742;BME280;53654;54.152;19.432;2022-12-07T00:08:46;100782.19;;;3.88;81.27
66742;BME280;53654;54.152;19.432;2022-12-07T00:11:19;100777.63;;;3.85;81.60
66742;BME280;53654;54.152;19.432;2022-12-07T00:13:50;100779.48;;;3.82;81.60
66742;BME280;53654;54.152;19.432;2022-12-07T00:16:19;100770.48;;;3.81;81.98
66742;BME280;53654;54.152;19.432;2022-12-07T00:18:46;100767.06;;;3.83;82.20
66742;BME280;53654;54.152;19.432;2022-12-07T00:21:47;100765.75;;;3.86;82.10
66742;BME280;53654;54.152;19.432;2022-12-07T00:24:07;100760.79;;;3.89;82.14
66742;BME280;53654;54.152;19.432;2022-12-07T00:26:36;100762.42;;;3.93;82.17
66742;BME280;53654;54.152;19.432;2022-12-07T00:29:16;100757.46;;;3.95;82.07
66742;BME280;53654;54.152;19.432;2022-12-07T00:31:45;100757.13;;;3.96;82.08
66742;BME280;53654;54.152;19.432;2022-12-07T00:34:14;100754.23;;;3.98;82.12
66742;BME280;53654;54.152;19.432;2022-12-07T00:36:42;100749.80;;;4.01;82.22
66742;BME280;53654;54.152;19.432;2022-12-07T00:39:09;100747.29;;;4.05;82.22
66742;BME280;53654;54.152;19.432;2022-12-07T00:41:36;100750.11;;;4.08;82.01
66742;BME280;53654;54.152;19.432;2022-12-07T00:44:02;100749.11;;;4.11;81.87
66742;BME280;53654;54.152;19.432;2022-12-07T00:46:30;100743.98;;;4.13;81.99
66742;BME280;53654;54.152;19.432;2022-12-07T00:48:56;100746.97;;;4.16;81.58
66742;BME280;53654;54.152;19.432;2022-12-07T00:51:25;100744.59;;;4.18;81.55
66742;BME280;53654;54.152;19.432;2022-12-07T00:53:52;100738.01;;;4.18;81.73
66742;BME280;53654;54.152;19.432;2022-12-07T00:56:21;100738.23;;;4.20;81.81
66742;BME280;53654;54.152;19.432;2022-12-07T00:58:56;100737.05;;;4.22;81.66
66742;BME280;53654;54.152;19.432;2022-12-07T01:01:25;100733.07;;;4.21;81.56
66742;BME280;53654;54.152;19.432;2022-12-07T01:03:53;100731.71;;;4.23;81.55
66742;BME280;53654;54.152;19.432;2022-12-07T01:06:21;100726.73;;;4.25;81.50
66742;BME280;53654;54.152;19.432;2022-12-07T01:08:48;100729.17;;;4.26;81.56
66742;BME280;53654;54.152;19.432;2022-12-07T01:11:18;100724.69;;;4.26;81.80
66742;BME280;53654;54.152;19.432;2022-12-07T01:13:47;100721.83;;;4.31;81.64
66742;BME280;53654;54.152;19.432;2022-12-07T01:16:16;100717.02;;;4.32;81.36
66742;BME280;53654;54.152;19.432;2022-12-07T01:18:46;100716.86;;;4.33;81.25
66742;BME280;53654;54.152;19.432;2022-12-07T01:21:26;100714.61;;;4.34;81.25
66742;BME280;53654;54.152;19.432;2022-12-07T01:23:53;100712.52;;;4.33;81.21
66742;BME280;53654;54.152;19.432;2022-12-07T01:26:22;100711.84;;;4.32;81.11
66742;BME280;53654;54.152;19.432;2022-12-07T01:28:51;100714.71;;;4.29;81.09
66742;BME280;53654;54.152;19.432;2022-12-07T01:31:20;100708.79;;;4.26;81.30
66742;BME280;53654;54.152;19.432;2022-12-07T01:33:52;100708.45;;;4.26;81.60
66742;BME280;53654;54.152;19.432;2022-12-07T01:36:20;100705.70;;;4.27;81.45
66742;BME280;53654;54.152;19.432;2022-12-07T01:38:49;100702.25;;;4.27;81.10
66742;BME280;53654;54.152;19.432;2022-12-07T01:41:19;100702.29;;;4.29;81.05
66742;BME280;53654;54.152;19.432;2022-12-07T01:46:42;100689.65;;;4.27;80.88
66742;BME280;53654;54.152;19.432;2022-12-07T01:49:13;100693.09;;;4.26;80.90
66742;BME280;53654;54.152;19.432;2022-12-07T01:51:42;100691.68;;;4.25;80.71
66742;BME280;53654;54.152;19.432;2022-12-07T01:54:11;100689.60;;;4.25;80.72
66742;BME280;53654;54.152;19.432;2022-12-07T01:56:41;100685.08;;;4.23;80.61
66742;BME280;53654;54.152;19.432;2022-12-07T01:59:10;100687.16;;;4.23;80.63
66742;BME280;53654;54.152;19.432;2022-12-07T02:01:37;100681.45;;;4.22;80.42
66742;BME280;53654;54.152;19.432;2022-12-07T02:04:05;100682.81;;;4.21;80.29
66742;BME280;53654;54.152;19.432;2022-12-07T02:06:33;100680.75;;;4.21;80.03
66742;BME280;53654;54.152;19.432;2022-12-07T02:09:02;100675.39;;;4.21;80.01
66742;BME280;53654;54.152;19.432;2022-12-07T02:11:28;100669.52;;;4.20;80.19
66742;BME280;53654;54.152;19.432;2022-12-07T02:13:55;100669.83;;;4.18;80.12
66742;BME280;53654;54.152;19.432;2022-12-07T02:28:21;100652.74;;;3.98;80.68
66742;BME280;53654;54.152;19.432;2022-12-07T02:30:55;100647.55;;;3.98;80.87
66742;BME280;53654;54.152;19.432;2022-12-07T02:33:32;100646.20;;;4.00;80.54
66742;BME280;53654;54.152;19.432;2022-12-07T02:36:10;100640.70;;;4.01;80.44
66742;BME280;53654;54.152;19.432;2022-12-07T02:38:45;100637.94;;;4.01;80.38
66742;BME280;53654;54.152;19.432;2022-12-07T02:41:34;100636.04;;;4.00;80.40
66742;BME280;53654;54.152;19.432;2022-12-07T02:44:06;100629.27;;;3.98;80.49
66742;BME280;53654;54.152;19.432;2022-12-07T02:46:41;100622.71;;;3.98;80.57
66742;BME280;53654;54.152;19.432;2022-12-07T02:49:09;100620.48;;;3.99;80.41
66742;BME280;53654;54.152;19.432;2022-12-07T02:51:43;100620.49;;;4.00;80.44
66742;BME280;53654;54.152;19.432;2022-12-07T02:54:13;100618.25;;;4.00;80.41
66742;BME280;53654;54.152;19.432;2022-12-07T03:07:57;100606.06;;;3.93;80.20
66742;BME280;53654;54.152;19.432;2022-12-07T03:13:23;100597.48;;;3.85;80.47
66742;BME280;53654;54.152;19.432;2022-12-07T03:18:55;100591.29;;;3.87;80.71
66742;BME280;53654;54.152;19.432;2022-12-07T03:21:25;100590.42;;;3.87;80.67
66742;BME280;53654;54.152;19.432;2022-12-07T03:23:58;100585.28;;;3.89;80.61
66742;BME280;53654;54.152;19.432;2022-12-07T03:26:36;100584.80;;;3.91;80.59
66742;BME280;53654;54.152;19.432;2022-12-07T03:29:09;100581.56;;;3.94;80.69
66742;BME280;53654;54.152;19.432;2022-12-07T03:31:47;100576.09;;;3.97;80.61
66742;BME280;53654;54.152;19.432;2022-12-07T03:34:29;100578.53;;;3.99;80.66
66742;BME280;53654;54.152;19.432;2022-12-07T03:37:04;100579.05;;;3.98;80.54
66742;BME280;53654;54.152;19.432;2022-12-07T03:39:39;100576.81;;;3.99;80.63
66742;BME280;53654;54.152;19.432;2022-12-07T03:42:08;100574.77;;;4.01;80.60
66742;BME280;53654;54.152;19.432;2022-12-07T03:44:36;100566.33;;;4.02;80.79
66742;BME280;53654;54.152;19.432;2022-12-07T03:47:08;100563.04;;;4.01;80.44
66742;BME280;53654;54.152;19.432;2022-12-07T03:52:28;100558.87;;;4.00;80.80
66742;BME280;53654;54.152;19.432;2022-12-07T03:55:16;100553.47;;;3.96;81.16
66742;BME280;53654;54.152;19.432;2022-12-07T03:57:48;100554.95;;;3.92;81.05
66742;BME280;53654;54.152;19.432;2022-12-07T04:00:18;100545.27;;;3.92;81.35
66742;BME280;53654;54.152;19.432;2022-12-07T04:02:45;100542.52;;;3.92;81.28
66742;BME280;53654;54.152;19.432;2022-12-07T04:05:12;100540.98;;;3.92;81.34
66742;BME280;53654;54.152;19.432;2022-12-07T04:07:39;100539.98;;;3.95;81.22
66742;BME280;53654;54.152;19.432;2022-12-07T04:10:07;100537.58;;;3.95;80.96
66742;BME280;53654;54.152;19.432;2022-12-07T04:12:34;100539.33;;;3.97;81.13
66742;BME280;53654;54.152;19.432;2022-12-07T04:15:00;100536.75;;;3.98;81.10
66742;BME280;53654;54.152;19.432;2022-12-07T04:17:27;100535.19;;;3.98;80.91
66742;BME280;53654;54.152;19.432;2022-12-07T04:19:54;100530.38;;;3.99;81.17
66742;BME280;53654;54.152;19.432;2022-12-07T04:22:21;100524.89;;;4.01;81.18
66742;BME280;53654;54.152;19.432;2022-12-07T04:24:47;100522.16;;;4.03;81.10
66742;BME280;53654;54.152;19.432;2022-12-07T04:27:14;100519.90;;;4.03;80.80
66742;BME280;53654;54.152;19.432;2022-12-07T04:29:41;100519.55;;;4.03;80.94
66742;BME280;53654;54.152;19.432;2022-12-07T04:32:08;100515.41;;;4.02;81.21
66742;BME280;53654;54.152;19.432;2022-12-07T04:34:35;100510.59;;;4.03;81.37
66742;BME280;53654;54.152;19.432;2022-12-07T04:37:02;100508.35;;;4.03;81.03
66742;BME280;53654;54.152;19.432;2022-12-07T04:39:31;100502.50;;;4.05;81.21
66742;BME280;53654;54.152;19.432;2022-12-07T04:41:59;100501.66;;;4.06;81.26
66742;BME280;53654;54.152;19.432;2022-12-07T04:44:27;100496.50;;;4.07;81.32
66742;BME280;53654;54.152;19.432;2022-12-07T04:46:54;100494.61;;;4.08;81.16
66742;BME280;53654;54.152;19.432;2022-12-07T04:49:22;100489.92;;;4.07;81.12
66742;BME280;53654;54.152;19.432;2022-12-07T04:51:49;100484.59;;;4.08;81.14
66742;BME280;53654;54.152;19.432;2022-12-07T04:54:16;100480.27;;;4.08;81.11
66742;BME280;53654;54.152;19.432;2022-12-07T04:56:43;100475.11;;;4.08;81.20
66742;BME280;53654;54.152;19.432;2022-12-07T04:59:11;100475.45;;;4.07;81.29
66742;BME280;53654;54.152;19.432;2022-12-07T05:01:38;100472.67;;;4.07;81.45
66742;BME280;53654;54.152;19.432;2022-12-07T05:04:05;100473.20;;;4.08;81.45
66742;BME280;53654;54.152;19.432;2022-12-07T05:06:32;100471.50;;;4.10;81.54
66742;BME280;53654;54.152;19.432;2022-12-07T05:08:59;100470.14;;;4.11;81.52
66742;BME280;53654;54.152;19.432;2022-12-07T05:11:26;100466.49;;;4.10;81.35
66742;BME280;53654;54.152;19.432;2022-12-07T05:14:17;100462.19;;;4.11;81.81
66742;BME280;53654;54.152;19.432;2022-12-07T05:16:47;100460.64;;;4.11;81.72
66742;BME280;53654;54.152;19.432;2022-12-07T05:19:14;100455.67;;;4.14;81.84
66742;BME280;53654;54.152;19.432;2022-12-07T05:21:41;100457.25;;;4.16;81.91
66742;BME280;53654;54.152;19.432;2022-12-07T05:24:10;100455.90;;;4.18;81.93
66742;BME280;53654;54.152;19.432;2022-12-07T05:26:38;100450.39;;;4.19;82.03
66742;BME280;53654;54.152;19.432;2022-12-07T05:29:05;100450.93;;;4.22;81.95
66742;BME280;53654;54.152;19.432;2022-12-07T05:31:32;100447.16;;;4.24;81.87
66742;BME280;53654;54.152;19.432;2022-12-07T05:34:00;100448.04;;;4.26;82.03
66742;BME280;53654;54.152;19.432;2022-12-07T05:36:27;100444.63;;;4.28;81.86
66742;BME280;53654;54.152;19.432;2022-12-07T05:38:55;100445.48;;;4.29;81.87
66742;BME280;53654;54.152;19.432;2022-12-07T05:41:21;100444.98;;;4.30;81.96
66742;BME280;53654;54.152;19.432;2022-12-07T05:44:06;100451.17;;;4.28;82.01
66742;BME280;53654;54.152;19.432;2022-12-07T05:46:33;100448.05;;;4.26;82.16
66742;BME280;53654;54.152;19.432;2022-12-07T05:49:00;100450.69;;;4.30;82.12
66742;BME280;53654;54.152;19.432;2022-12-07T05:51:27;100452.44;;;4.32;82.05
66742;BME280;53654;54.152;19.432;2022-12-07T05:53:54;100453.85;;;4.34;82.11
66742;BME280;53654;54.152;19.432;2022-12-07T05:56:22;100454.19;;;4.34;82.12
66742;BME280;53654;54.152;19.432;2022-12-07T05:58:49;100451.62;;;4.36;82.32
66742;BME280;53654;54.152;19.432;2022-12-07T06:01:34;100449.73;;;4.36;82.37
66742;BME280;53654;54.152;19.432;2022-12-07T06:04:00;100447.83;;;4.36;82.22
66742;BME280;53654;54.152;19.432;2022-12-07T06:06:27;100445.75;;;4.36;82.43
66742;BME280;53654;54.152;19.432;2022-12-07T06:08:54;100446.46;;;4.37;82.18
66742;BME280;53654;54.152;19.432;2022-12-07T06:11:21;100441.28;;;4.37;82.30
66742;BME280;53654;54.152;19.432;2022-12-07T06:14:06;100434.16;;;4.34;82.40
66742;BME280;53654;54.152;19.432;2022-12-07T06:16:33;100432.27;;;4.35;82.34
66742;BME280;53654;54.152;19.432;2022-12-07T06:18:59;100429.88;;;4.37;82.29
66742;BME280;53654;54.152;19.432;2022-12-07T06:21:26;100430.23;;;4.38;82.48
66742;BME280;53654;54.152;19.432;2022-12-07T06:23:53;100431.30;;;4.40;82.38
66742;BME280;53654;54.152;19.432;2022-12-07T06:26:20;100427.86;;;4.42;82.31
66742;BME280;53654;54.152;19.432;2022-12-07T06:28:47;100430.13;;;4.43;82.21
66742;BME280;53654;54.152;19.432;2022-12-07T06:31:13;100429.27;;;4.44;82.27
66742;BME280;53654;54.152;19.432;2022-12-07T06:33:41;100427.20;;;4.45;82.09
66742;BME280;53654;54.152;19.432;2022-12-07T06:36:08;100427.05;;;4.47;82.07
66742;BME280;53654;54.152;19.432;2022-12-07T06:38:35;100426.04;;;4.48;82.19
66742;BME280;53654;54.152;19.432;2022-12-07T06:41:02;100423.27;;;4.49;82.22
66742;BME280;53654;54.152;19.432;2022-12-07T06:43:29;100423.46;;;4.51;81.99
66742;BME280;53654;54.152;19.432;2022-12-07T06:45:56;100420.36;;;4.51;82.09
66742;BME280;53654;54.152;19.432;2022-12-07T06:48:23;100419.86;;;4.53;82.07
66742;BME280;53654;54.152;19.432;2022-12-07T06:50:50;100414.70;;;4.55;82.19
66742;BME280;53654;54.152;19.432;2022-12-07T06:53:22;100416.11;;;4.58;82.21
66742;BME280;53654;54.152;19.432;2022-12-07T06:55:49;100418.23;;;4.60;82.09
66742;BME280;53654;54.152;19.432;2022-12-07T06:58:16;100415.63;;;4.60;81.96
66742;BME280;53654;54.152;19.432;2022-12-07T07:00:44;100413.19;;;4.59;81.77
66742;BME280;53654;54.152;19.432;2022-12-07T07:03:11;100413.88;;;4.58;81.74
66742;BME280;53654;54.152;19.432;2022-12-07T07:05:38;100413.19;;;4.58;81.76
66742;BME280;53654;54.152;19.432;2022-12-07T07:08:04;100410.40;;;4.57;81.68
66742;BME280;53654;54.152;19.432;2022-12-07T07:10:48;100412.80;;;4.55;81.75
66742;BME280;53654;54.152;19.432;2022-12-07T07:13:15;100407.47;;;4.57;81.76
66742;BME280;53654;54.152;19.432;2022-12-07T07:15:42;100404.02;;;4.56;81.68
66742;BME280;53654;54.152;19.432;2022-12-07T07:18:08;100405.05;;;4.58;81.67
66742;BME280;53654;54.152;19.432;2022-12-07T07:20:36;100407.30;;;4.57;81.60
66742;BME280;53654;54.152;19.432;2022-12-07T07:23:03;100408.87;;;4.59;81.82
66742;BME280;53654;54.152;19.432;2022-12-07T07:25:30;100404.76;;;4.62;81.85
66742;BME280;53654;54.152;19.432;2022-12-07T07:27:57;100403.41;;;4.65;81.80
66742;BME280;53654;54.152;19.432;2022-12-07T07:30:24;100407.22;;;4.66;81.61
66742;BME280;53654;54.152;19.432;2022-12-07T07:32:51;100404.64;;;4.68;81.61
66742;BME280;53654;54.152;19.432;2022-12-07T07:35:18;100404.84;;;4.70;81.59
66742;BME280;53654;54.152;19.432;2022-12-07T07:37:45;100405.73;;;4.73;81.51
66742;BME280;53654;54.152;19.432;2022-12-07T07:40:12;100403.48;;;4.73;81.23
66742;BME280;53654;54.152;19.432;2022-12-07T07:42:39;100405.37;;;4.71;81.07
66742;BME280;53654;54.152;19.432;2022-12-07T07:45:06;100408.65;;;4.71;81.18
66742;BME280;53654;54.152;19.432;2022-12-07T07:47:33;100410.20;;;4.71;81.19
66742;BME280;53654;54.152;19.432;2022-12-07T07:49:59;100407.27;;;4.70;81.34
66742;BME280;53654;54.152;19.432;2022-12-07T07:52:27;100406.76;;;4.72;81.39
66742;BME280;53654;54.152;19.432;2022-12-07T07:54:54;100407.98;;;4.73;81.51
66742;BME280;53654;54.152;19.432;2022-12-07T07:57:20;100402.99;;;4.76;81.36
66742;BME280;53654;54.152;19.432;2022-12-07T07:59:47;100402.67;;;4.77;81.48
66742;BME280;53654;54.152;19.432;2022-12-07T08:02:18;100401.13;;;4.78;81.21
66742;BME280;53654;54.152;19.432;2022-12-07T08:04:46;100406.31;;;4.79;81.18
66742;BME280;53654;54.152;19.432;2022-12-07T08:07:13;100401.65;;;4.80;81.05
66742;BME280;53654;54.152;19.432;2022-12-07T08:09:41;100403.21;;;4.81;81.03
66742;BME280;53654;54.152;19.432;2022-12-07T08:12:08;100398.73;;;4.82;81.08
66742;BME280;53654;54.152;19.432;2022-12-07T08:14:34;100403.91;;;4.82;80.80
66742;BME280;53654;54.152;19.432;2022-12-07T08:17:02;100403.40;;;4.81;80.81
66742;BME280;53654;54.152;19.432;2022-12-07T08:19:28;100403.91;;;4.81;80.67
66742;BME280;53654;54.152;19.432;2022-12-07T08:21:55;100409.10;;;4.81;80.52
66742;BME280;53654;54.152;19.432;2022-12-07T08:24:23;100410.81;;;4.81;80.17
66742;BME280;53654;54.152;19.432;2022-12-07T08:26:52;100406.69;;;4.81;80.04
66742;BME280;53654;54.152;19.432;2022-12-07T08:29:19;100407.88;;;4.81;79.98
66742;BME280;53654;54.152;19.432;2022-12-07T08:31:46;100405.64;;;4.81;79.98
66742;BME280;53654;54.152;19.432;2022-12-07T08:34:13;100409.45;;;4.81;79.90
66742;BME280;53654;54.152;19.432;2022-12-07T08:36:40;100413.95;;;4.83;79.67
66742;BME280;53654;54.152;19.432;2022-12-07T08:39:07;100410.85;;;4.84;79.77
66742;BME280;53654;54.152;19.432;2022-12-07T08:41:54;100414.30;;;4.84;79.49
66742;BME280;53654;54.152;19.432;2022-12-07T08:44:21;100412.41;;;4.85;79.25
66742;BME280;53654;54.152;19.432;2022-12-07T08:46:52;100412.41;;;4.84;79.24
66742;BME280;53654;54.152;19.432;2022-12-07T08:49:33;100410.15;;;4.83;79.26
66742;BME280;53654;54.152;19.432;2022-12-07T08:52:04;100407.35;;;4.80;79.41
66742;BME280;53654;54.152;19.432;2022-12-07T08:54:33;100408.73;;;4.80;79.43
66742;BME280;53654;54.152;19.432;2022-12-07T08:57:02;100402.35;;;4.81;79.65
66742;BME280;53654;54.152;19.432;2022-12-07T08:59:30;100401.14;;;4.81;79.33
66742;BME280;53654;54.152;19.432;2022-12-07T09:01:57;100399.62;;;4.84;79.34
66742;BME280;53654;54.152;19.432;2022-12-07T09:04:23;100397.21;;;4.86;79.31
66742;BME280;53654;54.152;19.432;2022-12-07T09:06:50;100393.59;;;4.87;79.04
66742;BME280;53654;54.152;19.432;2022-12-07T09:09:17;100393.25;;;4.87;79.06
66742;BME280;53654;54.152;19.432;2022-12-07T09:11:44;100393.77;;;4.89;79.05
66742;BME280;53654;54.152;19.432;2022-12-07T09:14:12;100392.41;;;4.90;78.93
66742;BME280;53654;54.152;19.432;2022-12-07T09:16:39;100388.27;;;4.92;79.02
66742;BME280;53654;54.152;19.432;2022-12-07T09:19:07;100387.24;;;4.93;78.84
66742;BME280;53654;54.152;19.432;2022-12-07T09:21:34;100382.77;;;4.95;79.02
66742;BME280;53654;54.152;19.432;2022-12-07T09:24:01;100382.78;;;4.96;78.63
66742;BME280;53654;54.152;19.432;2022-12-07T09:26:28;100382.63;;;4.98;78.60
66742;BME280;53654;54.152;19.432;2022-12-07T09:28:54;100383.33;;;5.00;78.53
66742;BME280;53654;54.152;19.432;2022-12-07T09:31:21;100379.89;;;5.02;78.90
66742;BME280;53654;54.152;19.432;2022-12-07T09:33:59;100383.37;;;5.05;78.77
66742;BME280;53654;54.152;19.432;2022-12-07T09:36:28;100383.73;;;5.05;78.54
66742;BME280;53654;54.152;19.432;2022-12-07T09:38:55;100380.27;;;5.07;78.59
66742;BME280;53654;54.152;19.432;2022-12-07T09:41:23;100376.48;;;5.07;78.38
66742;BME280;53654;54.152;19.432;2022-12-07T09:43:53;100380.83;;;5.10;78.47
66742;BME280;53654;54.152;19.432;2022-12-07T09:46:24;100378.73;;;5.09;78.43
66742;BME280;53654;54.152;19.432;2022-12-07T09:48:51;100374.23;;;5.07;78.49
66742;BME280;53654;54.152;19.432;2022-12-07T09:51:21;100372.15;;;5.08;78.46
66742;BME280;53654;54.152;19.432;2022-12-07T09:53:55;100367.30;;;5.05;78.33
66742;BME280;53654;54.152;19.432;2022-12-07T09:56:24;100370.94;;;5.05;78.47
66742;BME280;53654;54.152;19.432;2022-12-07T09:59:01;100368.68;;;5.06;78.45
66742;BME280;53654;54.152;19.432;2022-12-07T10:01:31;100369.02;;;5.04;78.42
66742;BME280;53654;54.152;19.432;2022-12-07T10:04:08;100367.97;;;5.03;78.32
66742;BME280;53654;54.152;19.432;2022-12-07T10:06:36;100370.73;;;5.02;78.29
66742;BME280;53654;54.152;19.432;2022-12-07T10:09:12;100371.42;;;5.02;78.47
66742;BME280;53654;54.152;19.432;2022-12-07T10:14:30;100376.23;;;4.98;78.41
66742;BME280;53654;54.152;19.432;2022-12-07T10:25:30;100373.60;;;4.94;78.64
66742;BME280;53654;54.152;19.432;2022-12-07T10:28:16;100372.58;;;4.96;78.56
66742;BME280;53654;54.152;19.432;2022-12-07T10:30:51;100370.84;;;4.95;78.19
66742;BME280;53654;54.152;19.432;2022-12-07T10:33:48;100368.24;;;4.95;77.83
66742;BME280;53654;54.152;19.432;2022-12-07T10:36:21;100371.67;;;4.92;77.43
66742;BME280;53654;54.152;19.432;2022-12-07T10:38:52;100372.35;;;4.90;77.33
66742;BME280;53654;54.152;19.432;2022-12-07T10:41:19;100370.11;;;4.90;77.50
66742;BME280;53654;54.152;19.432;2022-12-07T10:43:48;100373.74;;;4.90;77.06
66742;BME280;53654;54.152;19.432;2022-12-07T10:52:15;100372.98;;;4.81;75.99
66742;BME280;53654;54.152;19.432;2022-12-07T11:00:24;100354.44;;;4.76;75.57
66742;BME280;53654;54.152;19.432;2022-12-07T11:06:02;100351.98;;;4.73;75.97
66742;BME280;53654;54.152;19.432;2022-12-07T11:17:31;100347.61;;;4.66;75.41
66742;BME280;53654;54.152;19.432;2022-12-07T11:20:05;100342.02;;;4.60;75.54
66742;BME280;53654;54.152;19.432;2022-12-07T11:22:51;100340.45;;;4.58;75.66
66742;BME280;53654;54.152;19.432;2022-12-07T11:34:04;100334.90;;;4.55;75.22
66742;BME280;53654;54.152;19.432;2022-12-07T11:36:38;100340.23;;;4.53;75.21
66742;BME280;53654;54.152;19.432;2022-12-07T11:41:49;100333.66;;;4.53;75.08
66742;BME280;53654;54.152;19.432;2022-12-07T11:44:59;100330.36;;;4.51;74.76
66742;BME280;53654;54.152;19.432;2022-12-07T11:50:46;100327.52;;;4.41;75.04
66742;BME280;53654;54.152;19.432;2022-12-07T11:53:40;100325.80;;;4.43;75.46
66742;BME280;53654;54.152;19.432;2022-12-07T11:59:01;100313.43;;;4.50;75.12
66742;BME280;53654;54.152;19.432;2022-12-07T12:04:05;100303.76;;;4.50;74.94
66742;BME280;53654;54.152;19.432;2022-12-07T12:06:33;100301.88;;;4.52;74.53
66742;BME280;53654;54.152;19.432;2022-12-07T12:18:15;100294.69;;;4.41;74.43
66742;BME280;53654;54.152;19.432;2022-12-07T12:20:57;100294.86;;;4.41;74.82
66742;BME280;53654;54.152;19.432;2022-12-07T12:23:40;100290.88;;;4.39;74.39
66742;BME280;53654;54.152;19.432;2022-12-07T12:26:17;100292.94;;;4.39;74.38
66742;BME280;53654;54.152;19.432;2022-12-07T12:29:55;100288.81;;;4.40;74.26
66742;BME280;53654;54.152;19.432;2022-12-07T12:32:22;100288.25;;;4.36;74.52
66742;BME280;53654;54.152;19.432;2022-12-07T12:35:32;100290.34;;;4.38;74.61
66742;BME280;53654;54.152;19.432;2022-12-07T12:40:46;100287.52;;;4.31;73.91
66742;BME280;53654;54.152;19.432;2022-12-07T12:54:23;100278.55;;;4.33;73.72
66742;BME280;53654;54.152;19.432;2022-12-07T12:59:36;100277.72;;;4.35;72.97
66742;BME280;53654;54.152;19.432;2022-12-07T13:02:20;100279.10;;;4.36;72.31
66742;BME280;53654;54.152;19.432;2022-12-07T13:04:53;100274.80;;;4.37;72.29
66742;BME280;53654;54.152;19.432;2022-12-07T13:23:37;100259.92;;;4.35;72.38
66742;BME280;53654;54.152;19.432;2022-12-07T13:26:12;100256.98;;;4.35;72.51
66742;BME280;53654;54.152;19.432;2022-12-07T13:31:34;100249.76;;;4.37;72.77
66742;BME280;53654;54.152;19.432;2022-12-07T13:34:27;100249.58;;;4.36;72.64
66742;BME280;53654;54.152;19.432;2022-12-07T13:36:52;100249.05;;;4.35;73.04
66742;BME280;53654;54.152;19.432;2022-12-07T13:39:21;100251.65;;;4.37;73.60
66742;BME280;53654;54.152;19.432;2022-12-07T13:41:54;100250.98;;;4.38;73.64
66742;BME280;53654;54.152;19.432;2022-12-07T13:44:22;100248.39;;;4.38;73.70
66742;BME280;53654;54.152;19.432;2022-12-07T13:46:57;100248.75;;;4.41;73.48
66742;BME280;53654;54.152;19.432;2022-12-07T13:49:31;100247.36;;;4.40;73.59
66742;BME280;53654;54.152;19.432;2022-12-07T13:52:17;100248.23;;;4.41;73.60
66742;BME280;53654;54.152;19.432;2022-12-07T13:54:49;100240.96;;;4.39;73.71
66742;BME280;53654;54.152;19.432;2022-12-07T13:57:17;100238.73;;;4.40;73.79
66742;BME280;53654;54.152;19.432;2022-12-07T13:59:44;100237.36;;;4.42;73.73
66742;BME280;53654;54.152;19.432;2022-12-07T14:02:20;100239.63;;;4.43;73.82
66742;BME280;53654;54.152;19.432;2022-12-07T14:04:49;100235.64;;;4.43;73.75
66742;BME280;53654;54.152;19.432;2022-12-07T14:07:28;100235.31;;;4.45;73.80
66742;BME280;53654;54.152;19.432;2022-12-07T14:12:26;100227.67;;;4.40;73.77
66742;BME280;53654;54.152;19.432;2022-12-07T14:14:53;100231.64;;;4.40;73.93
66742;BME280;53654;54.152;19.432;2022-12-07T14:17:23;100235.11;;;4.42;73.88
66742;BME280;53654;54.152;19.432;2022-12-07T14:19:57;100235.48;;;4.43;74.05
66742;BME280;53654;54.152;19.432;2022-12-07T14:22:37;100237.20;;;4.42;73.81
66742;BME280;53654;54.152;19.432;2022-12-07T14:27:47;100237.15;;;4.38;74.08
66742;BME280;53654;54.152;19.432;2022-12-07T14:30:16;100231.28;;;4.38;73.94
66742;BME280;53654;54.152;19.432;2022-12-07T14:32:44;100230.59;;;4.37;73.98
66742;BME280;53654;54.152;19.432;2022-12-07T14:35:17;100230.41;;;4.37;73.94
66742;BME280;53654;54.152;19.432;2022-12-07T14:37:46;100228.98;;;4.33;73.65
66742;BME280;53654;54.152;19.432;2022-12-07T14:40:15;100230.38;;;4.33;73.73
66742;BME280;53654;54.152;19.432;2022-12-07T14:42:44;100226.92;;;4.34;73.91
66742;BME280;53654;54.152;19.432;2022-12-07T14:45:14;100226.06;;;4.34;73.75
66742;BME280;53654;54.152;19.432;2022-12-07T14:47:42;100228.16;;;4.36;73.66
66742;BME280;53654;54.152;19.432;2022-12-07T14:50:29;100229.00;;;4.33;73.69
66742;BME280;53654;54.152;19.432;2022-12-07T14:52:59;100227.11;;;4.34;73.74
66742;BME280;53654;54.152;19.432;2022-12-07T14:55:47;100221.40;;;4.33;73.76
66742;BME280;53654;54.152;19.432;2022-12-07T14:58:15;100226.06;;;4.34;73.82
66742;BME280;53654;54.152;19.432;2022-12-07T15:00:43;100220.55;;;4.35;73.92
66742;BME280;53654;54.152;19.432;2022-12-07T15:03:10;100219.86;;;4.34;73.54
66742;BME280;53654;54.152;19.432;2022-12-07T15:05:40;100217.95;;;4.34;73.51
66742;BME280;53654;54.152;19.432;2022-12-07T15:08:11;100217.61;;;4.34;73.44
66742;BME280;53654;54.152;19.432;2022-12-07T15:10:38;100213.45;;;4.32;73.30
66742;BME280;53654;54.152;19.432;2022-12-07T15:13:07;100215.16;;;4.30;73.50
66742;BME280;53654;54.152;19.432;2022-12-07T15:15:53;100212.89;;;4.29;73.83
66742;BME280;53654;54.152;19.432;2022-12-07T15:18:21;100213.24;;;4.29;73.96
66742;BME280;53654;54.152;19.432;2022-12-07T15:20:48;100212.19;;;4.27;73.93
66742;BME280;53654;54.152;19.432;2022-12-07T15:23:14;100211.52;;;4.27;74.01
66742;BME280;53654;54.152;19.432;2022-12-07T15:25:42;100213.23;;;4.28;73.98
66742;BME280;53654;54.152;19.432;2022-12-07T15:28:09;100213.40;;;4.27;74.20